createdAt,value
2024-05-09T00:00:35.549Z,99190.34
2024-05-09T00:03:07.399Z,99187.75
2024-05-09T00:05:34.458Z,99191.19
2024-05-09T00:08:01.382Z,99191.19
2024-05-09T00:10:35.448Z,99190.31
2024-05-09T00:13:04.879Z,99186.91
2024-05-09T00:15:33.232Z,99195.47
2024-05-09T00:18:00.134Z,99190.34
2024-05-09T00:20:35.113Z,99191.19
2024-05-09T00:23:06.868Z,99193.75
2024-05-09T00:25:33.936Z,99195.47
2024-05-09T00:28:00.546Z,99194.63
2024-05-09T00:30:33.649Z,99192.03
2024-05-09T00:33:03.179Z,99184.34
2024-05-09T00:35:30.434Z,99186.06
2024-05-09T00:37:57.158Z,99191.19
2024-05-09T00:40:34.801Z,99185.19
2024-05-09T00:43:06.308Z,99177.50
2024-05-09T00:45:34.368Z,99182.63
2024-05-09T00:48:03.543Z,99180.94
2024-05-09T00:50:36.332Z,99175.81
2024-05-09T00:53:06.106Z,99179.22
2024-05-09T00:55:34.793Z,99180.94
2024-05-09T00:58:02.771Z,99180.06
2024-05-09T01:00:37.776Z,99176.63
2024-05-09T01:03:07.322Z,99178.31
2024-05-09T01:05:35.031Z,99175.75
2024-05-09T01:08:02.986Z,99174.88
2024-05-09T01:10:34.455Z,99171.47
2024-05-09T01:13:03.528Z,99174.03
2024-05-09T01:15:30.352Z,99170.59
2024-05-09T01:17:58.247Z,99164.63
2024-05-09T01:20:36.539Z,99179.09
2024-05-09T01:23:09.596Z,99179.09
2024-05-09T01:25:36.646Z,99179.03
2024-05-09T01:28:03.303Z,99185.88
2024-05-09T01:30:34.797Z,99172.19
2024-05-09T01:33:04.631Z,99177.28
2024-05-09T01:35:31.932Z,99178.19
2024-05-09T01:37:58.767Z,99183.25
2024-05-09T01:40:35.405Z,99181.56
2024-05-09T01:43:04.993Z,99187.50
2024-05-09T01:45:31.660Z,99187.50
2024-05-09T01:47:58.831Z,99178.09
2024-05-09T01:50:36.992Z,99174.72
2024-05-09T01:53:07.218Z,99178.09
2024-05-09T01:55:33.823Z,99178.94
2024-05-09T01:58:00.358Z,99178.91
2024-05-09T02:00:37.643Z,99178.09
2024-05-09T02:03:10.044Z,99181.47
2024-05-09T02:05:37.689Z,99180.63
2024-05-09T02:08:05.304Z,99183.16
2024-05-09T02:10:33.054Z,99181.47
2024-05-09T02:13:00.121Z,99180.63
2024-05-09T02:15:26.761Z,99180.63
2024-05-09T02:17:53.558Z,99177.25
2024-05-09T02:20:30.072Z,99184.88
2024-05-09T02:23:03.821Z,99184.00
2024-05-09T02:25:30.817Z,99183.16
2024-05-09T02:27:57.340Z,99181.47
2024-05-09T02:30:31.022Z,99179.75
2024-05-09T02:33:05.856Z,99178.00
2024-05-09T02:35:32.803Z,99181.41
2024-05-09T02:37:59.770Z,99177.13
2024-05-09T02:40:35.456Z,99172.03
2024-05-09T02:43:05.180Z,99176.31
2024-05-09T02:45:31.890Z,99171.22
2024-05-09T02:47:58.811Z,99169.50
2024-05-09T02:50:33.765Z,99179.72
2024-05-09T02:53:05.101Z,99168.63
2024-05-09T02:55:31.768Z,99173.75
2024-05-09T02:57:58.323Z,99168.63
2024-05-09T03:00:34.223Z,99173.75
2024-05-09T03:03:10.465Z,99173.75
2024-05-09T03:05:39.633Z,99173.75
2024-05-09T03:08:06.764Z,99178.03
2024-05-09T03:10:36.580Z,99176.34
2024-05-09T03:13:08.919Z,99178.94
2024-05-09T03:15:35.648Z,99175.53
2024-05-09T03:18:03.085Z,99180.69
2024-05-09T03:20:34.224Z,99182.38
2024-05-09T03:23:03.271Z,99180.69
2024-05-09T03:25:30.119Z,99181.53
2024-05-09T03:27:56.817Z,99181.56
2024-05-09T03:30:35.938Z,99179.84
2024-05-09T03:33:15.542Z,99175.53
2024-05-09T03:35:46.149Z,99183.22
2024-05-09T03:38:13.010Z,99175.56
2024-05-09T03:40:47.243Z,99179.81
2024-05-09T03:43:14.284Z,99172.13
2024-05-09T03:45:42.331Z,99177.22
2024-05-09T03:48:09.129Z,99172.06
2024-05-09T03:50:36.886Z,99163.53
2024-05-09T03:53:04.474Z,99166.06
2024-05-09T03:55:31.330Z,99169.34
2024-05-09T03:57:58.080Z,99168.53
2024-05-09T04:00:31.474Z,99171.91
2024-05-09T04:03:05.537Z,99171.06
2024-05-09T04:05:33.261Z,99175.34
2024-05-09T04:08:00.115Z,99179.59
2024-05-09T04:10:32.833Z,99180.50
2024-05-09T04:13:01.203Z,99186.44
2024-05-09T04:15:27.827Z,99181.31
2024-05-09T04:17:54.571Z,99182.16
2024-05-09T04:20:32.533Z,99182.97
2024-05-09T04:23:10.690Z,99177.00
2024-05-09T04:25:37.836Z,99173.59
2024-05-09T04:28:05.333Z,99177.00
2024-05-09T04:30:38.016Z,99181.28
2024-05-09T04:33:09.161Z,99183.00
2024-05-09T04:35:38.641Z,99184.72
2024-05-09T04:38:05.729Z,99185.50
2024-05-09T04:40:35.668Z,99195.84
2024-05-09T04:43:05.306Z,99195.81
2024-05-09T04:45:32.203Z,99192.44
2024-05-09T04:47:59.070Z,99198.47
2024-05-09T04:50:35.221Z,99204.47
2024-05-09T04:53:05.107Z,99201.94
2024-05-09T04:55:32.542Z,99209.59
2024-05-09T04:57:59.101Z,99212.28
2024-05-09T05:00:34.477Z,99213.97
2024-05-09T05:03:06.982Z,99212.16
2024-05-09T05:05:37.525Z,99215.63
2024-05-09T05:08:04.603Z,99216.28
2024-05-09T05:10:36.038Z,99211.25
2024-05-09T05:13:17.691Z,99215.50
2024-05-09T05:15:55.946Z,99218.94
2024-05-09T05:18:23.949Z,99216.53
2024-05-09T05:20:50.809Z,99208.03
2024-05-09T05:23:19.881Z,99219.22
2024-05-09T05:25:54.193Z,99222.69
2024-05-09T05:28:22.034Z,99219.31
2024-05-09T05:30:48.884Z,99223.59
2024-05-09T05:33:18.412Z,99225.28
2024-05-09T05:35:45.498Z,99230.44
2024-05-09T05:38:12.190Z,99227.03
2024-05-09T05:40:40.181Z,99227.91
2024-05-09T05:43:11.013Z,99222.81
2024-05-09T05:45:38.459Z,99228.78
2024-05-09T05:48:06.967Z,99231.34
2024-05-09T05:50:36.916Z,99229.66
2024-05-09T05:53:06.787Z,99230.44
2024-05-09T05:55:33.735Z,99234.69
2024-05-09T05:58:01.794Z,99230.41
2024-05-09T06:00:34.840Z,99232.00
2024-05-09T06:03:05.411Z,99237.75
2024-05-09T06:05:32.751Z,99238.38
2024-05-09T06:07:59.565Z,99249.22
2024-05-09T06:10:34.761Z,99241.53
2024-05-09T06:13:05.426Z,99241.34
2024-05-09T06:15:32.137Z,99245.69
2024-05-09T06:17:59.250Z,99241.41
2024-05-09T06:20:34.637Z,99249.19
2024-05-09T06:23:04.134Z,99245.22
2024-05-09T06:25:30.768Z,99243.56
2024-05-09T06:27:57.309Z,99239.19
2024-05-09T06:30:30.437Z,99237.19
2024-05-09T06:33:05.688Z,99242.78
2024-05-09T06:35:33.034Z,99232.25
2024-05-09T06:37:59.928Z,99234.78
2024-05-09T06:40:35.917Z,99231.72
2024-05-09T06:43:05.287Z,99229.31
2024-05-09T06:45:31.828Z,99233.59
2024-05-09T06:47:58.555Z,99242.03
2024-05-09T06:50:28.481Z,99234.13
2024-05-09T06:53:01.981Z,99236.69
2024-05-09T06:55:28.711Z,99241.44
2024-05-09T06:57:55.268Z,99231.97
2024-05-09T07:00:27.746Z,99232.69
2024-05-09T07:03:05.732Z,99223.28
2024-05-09T07:05:33.369Z,99228.41
2024-05-09T07:08:00.180Z,99236.88
2024-05-09T07:10:32.874Z,99234.34
2024-05-09T07:13:01.933Z,99235.88
2024-05-09T07:15:28.837Z,99232.84
2024-05-09T07:17:55.674Z,99229.13
2024-05-09T07:20:31.734Z,99222.50
2024-05-09T07:23:02.525Z,99226.09
2024-05-09T07:25:29.379Z,99225.66
2024-05-09T07:27:56.030Z,99222.97
2024-05-09T07:30:27.738Z,99228.91
2024-05-09T07:33:00.179Z,99228.16
2024-05-09T07:35:27.251Z,99220.22
2024-05-09T07:37:54.046Z,99224.56
2024-05-09T07:40:29.044Z,99217.38
2024-05-09T07:43:14.446Z,99222.34
2024-05-09T07:45:50.686Z,99222.00
2024-05-09T07:52:37.970Z,99215.13
2024-05-09T07:53:45.677Z,99220.84
2024-05-09T07:56:16.150Z,99216.84
2024-05-09T07:58:43.652Z,99216.66
2024-05-09T08:01:10.256Z,99202.25
2024-05-09T08:03:38.184Z,99206.31
2024-05-09T08:06:05.076Z,99205.47
2024-05-09T08:08:31.612Z,99198.63
2024-05-09T08:10:58.171Z,99207.41
2024-05-09T08:13:24.732Z,99204.78
2024-05-09T08:15:52.432Z,99199.81
2024-05-09T08:18:19.286Z,99205.00
2024-05-09T08:20:48.770Z,99196.94
2024-05-09T08:23:15.694Z,99202.94
2024-05-09T08:25:42.279Z,99200.41
2024-05-09T08:28:09.055Z,99196.91
2024-05-09T08:30:37.530Z,99190.59
2024-05-09T08:33:06.513Z,99202.34
2024-05-09T08:35:34.448Z,99188.09
2024-05-09T08:38:06.501Z,99188.22
2024-05-09T08:40:36.197Z,99196.84
2024-05-09T08:43:09.339Z,99189.72
2024-05-09T08:45:38.906Z,99183.03
2024-05-09T08:48:08.583Z,99184.31
2024-05-09T08:50:40.407Z,99177.94
2024-05-09T08:53:08.207Z,99186.88
2024-05-09T08:55:39.420Z,99189.84
2024-05-09T08:58:12.592Z,99182.72
2024-05-09T09:00:41.966Z,99179.25
2024-05-09T09:03:10.106Z,99178.84
2024-05-09T09:05:38.508Z,99181.19
2024-05-09T09:08:07.728Z,99182.66
2024-05-09T09:10:35.237Z,99183.84
2024-05-09T09:13:04.699Z,99183.94
2024-05-09T09:15:31.918Z,99172.59
2024-05-09T09:17:59.951Z,99177.25
2024-05-09T09:20:34.211Z,99172.94
2024-05-09T09:23:04.100Z,99171.97
2024-05-09T09:25:30.988Z,99172.03
2024-05-09T09:28:00.558Z,99171.56
2024-05-09T09:30:35.160Z,99181.38
2024-05-09T09:33:05.243Z,99172.69
2024-05-09T09:35:32.721Z,99173.22
2024-05-09T09:38:02.590Z,99170.50
2024-05-09T09:40:36.182Z,99167.44
2024-05-09T09:43:13.887Z,99160.88
2024-05-09T09:45:43.385Z,99177.44
2024-05-09T09:48:10.817Z,99176.75
2024-05-09T09:50:37.824Z,99170.31
2024-05-09T09:53:06.993Z,99162.84
2024-05-09T09:55:33.560Z,99173.63
2024-05-09T09:58:01.056Z,99174.84
2024-05-09T10:00:32.930Z,99172.53
2024-05-09T10:03:01.148Z,99171.94
2024-05-09T10:05:28.865Z,99165.00
2024-05-09T10:07:57.426Z,99168.47
2024-05-09T10:10:31.819Z,99164.72
2024-05-09T10:13:02.539Z,99165.44
2024-05-09T10:15:29.317Z,99163.91
2024-05-09T10:18:05.271Z,99163.75
2024-05-09T10:21:01.071Z,99158.00
2024-05-09T10:23:36.760Z,99146.50
2024-05-09T10:26:05.408Z,99147.69
2024-05-09T10:28:35.335Z,99146.16
2024-05-09T10:31:13.326Z,99145.50
2024-05-09T10:33:50.072Z,99142.63
2024-05-09T10:36:22.242Z,99148.50
2024-05-09T10:38:49.868Z,99142.13
2024-05-09T10:41:17.581Z,99136.00
2024-05-09T10:43:44.239Z,99139.72
2024-05-09T10:46:11.517Z,99151.19
2024-05-09T10:48:39.217Z,99133.25
2024-05-09T10:51:06.058Z,99134.81
2024-05-09T10:53:40.486Z,99128.41
2024-05-09T10:56:07.058Z,99130.91
2024-05-09T10:58:33.607Z,99125.91
2024-05-09T11:01:02.347Z,99123.13
2024-05-09T11:03:31.062Z,99121.47
2024-05-09T11:05:58.031Z,99107.16
2024-05-09T11:08:24.846Z,99114.78
2024-05-09T11:10:54.336Z,99108.56
2024-05-09T11:13:30.512Z,99109.59
2024-05-09T11:15:57.706Z,99107.06
2024-05-09T11:18:27.133Z,99107.25
2024-05-09T11:20:56.496Z,99100.56
2024-05-09T11:23:26.196Z,99093.13
2024-05-09T11:25:54.531Z,99090.06
2024-05-09T11:28:22.088Z,99084.75
2024-05-09T11:30:50.344Z,99081.63
2024-05-09T11:33:19.160Z,99076.72
2024-05-09T11:35:46.846Z,99081.06
2024-05-09T11:38:13.724Z,99080.50
2024-05-09T11:40:40.553Z,99081.63
2024-05-09T11:43:07.252Z,99063.28
2024-05-09T11:45:33.951Z,99080.81
2024-05-09T11:48:00.699Z,99078.47
2024-05-09T11:50:32.797Z,99075.22
2024-05-09T11:53:02.307Z,99067.66
2024-05-09T11:55:29.108Z,99066.03
2024-05-09T11:57:56.048Z,99063.09
2024-05-09T12:00:33.669Z,99054.34
2024-05-09T12:03:05.311Z,99054.91
2024-05-09T12:05:32.623Z,99055.88
2024-05-09T12:07:59.580Z,99051.75
2024-05-09T12:10:32.423Z,99052.63
2024-05-09T12:13:01.757Z,99049.44
2024-05-09T12:15:28.442Z,99057.06
2024-05-09T12:17:57.337Z,99046.94
2024-05-09T12:20:33.067Z,99040.97
2024-05-09T12:23:03.946Z,99033.75
2024-05-09T12:25:30.625Z,99044.69
2024-05-09T12:27:57.283Z,99038.44
2024-05-09T12:30:32.818Z,99029.84
2024-05-09T12:33:04.279Z,99036.34
2024-05-09T12:35:31.230Z,99033.06
2024-05-09T12:37:57.828Z,99029.53
2024-05-09T12:40:34.165Z,99027.75
2024-05-09T12:43:04.448Z,99028.19
2024-05-09T12:45:31.358Z,99021.78
2024-05-09T12:47:58.365Z,99021.34
2024-05-09T12:50:31.707Z,99018.38
2024-05-09T12:53:00.359Z,99011.28
2024-05-09T12:55:28.119Z,99021.75
2024-05-09T12:57:55.032Z,99016.16
2024-05-09T13:00:28.149Z,99027.31
2024-05-09T13:03:00.355Z,99012.28
2024-05-09T13:05:27.392Z,99008.59
2024-05-09T13:07:54.148Z,99005.06
2024-05-09T13:10:29.008Z,98997.63
2024-05-09T13:12:59.262Z,98995.03
2024-05-09T13:15:25.968Z,98982.91
2024-05-09T13:17:52.837Z,98992.31
2024-05-09T13:20:28.870Z,98989.03
2024-05-09T13:23:02.158Z,98980.25
2024-05-09T13:25:29.816Z,98987.09
2024-05-09T13:27:57.479Z,98988.00
2024-05-09T13:30:30.012Z,98978.06
2024-05-09T13:33:05.877Z,98977.69
2024-05-09T13:35:34.470Z,98980.41
2024-05-09T13:38:02.030Z,98971.38
2024-05-09T13:40:33.655Z,98970.97
2024-05-09T13:43:02.971Z,98969.44
2024-05-09T13:45:29.850Z,98962.78
2024-05-09T13:47:56.756Z,98967.81
2024-05-09T13:50:31.538Z,98967.34
2024-05-09T13:53:02.321Z,98960.69
2024-05-09T13:55:28.956Z,98958.66
2024-05-09T13:57:55.932Z,98951.06
2024-05-09T14:00:37.570Z,98949.53
2024-05-09T14:03:10.083Z,98947.53
2024-05-09T14:05:37.032Z,98944.72
2024-05-09T14:08:04.118Z,98939.91
2024-05-09T14:10:32.008Z,98944.13
2024-05-09T14:12:59.754Z,98936.97
2024-05-09T14:15:26.410Z,98931.03
2024-05-09T14:17:53.308Z,98929.78
2024-05-09T14:20:29.907Z,98928.56
2024-05-09T14:22:58.806Z,98918.56
2024-05-09T14:25:28.487Z,98922.53
2024-05-09T14:27:56.063Z,98918.56
2024-05-09T14:30:30.560Z,98908.72
2024-05-09T14:33:03.263Z,98906.31
2024-05-09T14:35:29.977Z,98907.19
2024-05-09T14:37:56.893Z,98907.28
2024-05-09T14:40:36.194Z,98905.69
2024-05-09T14:43:07.929Z,98897.16
2024-05-09T14:45:34.860Z,98891.28
2024-05-09T14:48:02.847Z,98887.22
2024-05-09T14:50:35.839Z,98890.53
2024-05-09T14:53:06.492Z,98888.22
2024-05-09T14:55:35.884Z,98883.09
2024-05-09T14:58:05.813Z,98883.13
2024-05-09T15:00:35.950Z,98877.88
2024-05-09T15:03:04.994Z,98882.25
2024-05-09T15:05:31.727Z,98874.69
2024-05-09T15:07:59.288Z,98884.69
2024-05-09T15:10:33.966Z,98884.78
2024-05-09T15:13:02.900Z,98874.03
2024-05-09T15:15:29.958Z,98877.56
2024-05-09T15:17:57.011Z,98875.03
2024-05-09T15:20:31.642Z,98864.88
2024-05-09T15:23:02.311Z,98869.28
2024-05-09T15:25:29.248Z,98860.91
2024-05-09T15:27:56.083Z,98858.41
2024-05-09T15:32:52.374Z,98856.03
2024-05-09T15:35:20.306Z,98850.31
2024-05-09T15:37:48.453Z,98854.44
2024-05-09T15:40:22.090Z,98855.56
2024-05-09T15:42:57.709Z,98856.97
2024-05-09T15:45:24.420Z,98852.69
2024-05-09T15:47:51.051Z,98855.38
2024-05-09T15:50:27.633Z,98844.00
2024-05-09T15:52:59.207Z,98845.50
2024-05-09T15:55:25.782Z,98842.50
2024-05-09T15:57:52.405Z,98849.38
2024-05-09T16:00:28.406Z,98844.00
2024-05-09T16:03:00.988Z,98845.84
2024-05-09T16:05:27.716Z,98842.97
2024-05-09T16:07:54.431Z,98845.09
2024-05-09T16:10:25.933Z,98846.53
2024-05-09T16:12:58.504Z,98847.53
2024-05-09T16:15:25.227Z,98838.94
2024-05-09T16:17:51.944Z,98841.81
2024-05-09T16:20:29.559Z,98842.81
2024-05-09T16:23:04.930Z,98833.47
2024-05-09T16:25:31.473Z,98840.88
2024-05-09T16:27:58.244Z,98835.75
2024-05-09T16:30:31.735Z,98838.94
2024-05-09T16:33:02.454Z,98839.09
2024-05-09T16:35:29.384Z,98834.22
2024-05-09T16:37:56.028Z,98832.03
2024-05-09T16:40:30.240Z,98827.81
2024-05-09T16:43:04.636Z,98825.28
2024-05-09T16:45:31.671Z,98838.19
2024-05-09T16:47:59.745Z,98834.28
2024-05-09T16:50:32.314Z,98827.13
2024-05-09T16:53:01.079Z,98831.50
2024-05-09T16:55:27.825Z,98826.59
2024-05-09T16:57:55.432Z,98824.75
2024-05-09T17:00:31.485Z,98821.22
2024-05-09T17:03:06.800Z,98826.78
2024-05-09T17:05:34.048Z,98823.56
2024-05-09T17:08:01.263Z,98831.16
2024-05-09T17:10:32.791Z,98823.88
2024-05-09T17:13:02.119Z,98820.16
2024-05-09T17:15:28.928Z,98824.69
2024-05-09T17:17:55.991Z,98820.66
2024-05-09T17:20:29.694Z,98817.41
2024-05-09T17:23:02.318Z,98818.53
2024-05-09T17:25:29.353Z,98822.81
2024-05-09T17:27:56.654Z,98811.16
2024-05-09T17:30:31.605Z,98818.56
2024-05-09T17:33:03.147Z,98819.53
2024-05-09T17:35:29.823Z,98818.88
2024-05-09T17:37:56.827Z,98822.31
2024-05-09T17:42:53.139Z,98814.56
2024-05-09T17:45:20.602Z,98818.00
2024-05-09T17:47:47.713Z,98816.75
2024-05-09T17:50:21.003Z,98816.44
2024-05-09T17:52:53.669Z,98827.34
2024-05-09T17:55:20.419Z,98826.75
2024-05-09T17:57:47.142Z,98829.44
2024-05-09T18:00:17.457Z,98828.06
2024-05-09T18:02:48.332Z,98824.22
2024-05-09T18:05:15.043Z,98826.19
2024-05-09T18:07:41.781Z,98819.00
2024-05-09T18:10:19.004Z,98825.56
2024-05-09T18:12:49.064Z,98822.03
2024-05-09T18:15:15.669Z,98822.72
2024-05-09T18:17:42.684Z,98828.41
2024-05-09T18:20:14.144Z,98828.19
2024-05-09T18:22:46.480Z,98833.59
2024-05-09T18:25:13.236Z,98830.31
2024-05-09T18:27:39.910Z,98828.09
2024-05-09T18:30:11.659Z,98827.97
2024-05-09T18:32:41.041Z,98827.28
2024-05-09T18:35:07.719Z,98823.06
2024-05-09T18:37:34.361Z,98831.00
2024-05-09T18:40:01.049Z,98829.53
2024-05-09T18:42:27.652Z,98830.59
2024-05-09T18:44:54.215Z,98825.28
2024-05-09T18:47:20.973Z,98825.81
2024-05-09T18:49:47.707Z,98832.34
2024-05-09T18:52:14.385Z,98836.78
2024-05-09T18:54:41.107Z,98838.25
2024-05-09T18:57:12.010Z,98839.91
2024-05-09T18:59:38.637Z,98837.91
2024-05-09T19:02:05.853Z,98843.56
2024-05-09T19:04:32.639Z,98851.81
2024-05-09T19:07:00.307Z,98843.41
2024-05-09T19:09:26.908Z,98852.41
2024-05-09T19:11:53.474Z,98859.84
2024-05-09T19:14:20.304Z,98861.13
2024-05-09T19:16:46.914Z,98858.78
2024-05-09T19:19:15.077Z,98866.97
2024-05-09T19:21:43.000Z,98865.59
2024-05-09T19:24:09.687Z,98865.91
2024-05-09T19:26:36.341Z,98873.94
2024-05-09T19:29:02.879Z,98869.06
2024-05-09T19:31:29.558Z,98878.78
2024-05-09T19:33:56.246Z,98879.84
2024-05-09T19:36:22.888Z,98884.41
2024-05-09T19:38:51.392Z,98876.34
2024-05-09T19:41:18.158Z,98881.28
2024-05-09T19:43:44.711Z,98878.81
2024-05-09T19:46:11.656Z,98880.06
2024-05-09T19:48:38.434Z,98879.50
2024-05-09T19:51:05.341Z,98882.88
2024-05-09T19:53:31.939Z,98879.47
2024-05-09T19:55:58.885Z,98882.88
2024-05-09T19:58:25.648Z,98891.63
2024-05-09T20:00:52.452Z,98885.53
2024-05-09T20:03:19.270Z,98887.41
2024-05-09T20:05:46.652Z,98888.41
2024-05-09T20:08:13.978Z,98886.78
2024-05-09T20:10:40.623Z,98890.38
2024-05-09T20:13:08.334Z,98887.00
2024-05-09T20:15:36.738Z,98889.91
2024-05-09T20:18:04.413Z,98882.44
2024-05-09T20:20:37.124Z,98885.16
2024-05-09T20:23:07.785Z,98887.06
2024-05-09T20:25:34.321Z,98891.72
2024-05-09T20:28:01.137Z,98896.94
2024-05-09T20:30:32.220Z,98888.66
2024-05-09T20:33:02.956Z,98885.50
2024-05-09T20:35:32.269Z,98888.41
2024-05-09T20:37:59.525Z,98887.72
2024-05-09T20:40:32.301Z,98892.31
2024-05-09T20:43:02.602Z,98886.38
2024-05-09T20:45:29.155Z,98881.44
2024-05-09T20:47:56.108Z,98885.03
2024-05-09T20:50:29.328Z,98886.09
2024-05-09T20:53:05.146Z,98882.66
2024-05-09T20:55:31.779Z,98888.81
2024-05-09T20:57:58.690Z,98887.31
2024-05-09T21:00:33.840Z,98890.88
2024-05-09T21:03:06.529Z,98885.78
2024-05-09T21:05:34.102Z,98888.63
2024-05-09T21:08:01.034Z,98898.97
2024-05-09T21:10:32.096Z,98894.75
2024-05-09T21:13:00.176Z,98891.47
2024-05-09T21:15:26.775Z,98900.16
2024-05-09T21:17:53.394Z,98896.97
2024-05-09T21:20:24.399Z,98889.22
2024-05-09T21:22:57.560Z,98893.69
2024-05-09T21:25:24.243Z,98895.34
2024-05-09T21:27:51.185Z,98899.72
2024-05-09T21:30:26.814Z,98892.91
2024-05-09T21:32:59.613Z,98898.06
2024-05-09T21:35:26.266Z,98893.81
2024-05-09T21:37:52.834Z,98897.28
2024-05-09T21:40:27.302Z,98895.56
2024-05-09T21:43:00.755Z,98898.16
2024-05-09T21:45:27.619Z,98900.75
2024-05-09T21:47:54.285Z,98897.50
2024-05-09T21:50:27.625Z,98893.38
2024-05-09T21:52:58.753Z,98895.13
2024-05-09T21:55:25.425Z,98891.72
2024-05-09T21:57:52.103Z,98887.31
2024-05-09T22:00:28.634Z,98889.13
2024-05-09T22:03:02.361Z,98891.69
2024-05-09T22:05:29.291Z,98892.59
2024-05-09T22:07:56.546Z,98902.19
2024-05-09T22:10:27.168Z,98896.19
2024-05-09T22:12:59.924Z,98897.16
2024-05-09T22:15:27.110Z,98899.75
2024-05-09T22:17:54.008Z,98898.94
2024-05-09T22:20:28.810Z,98898.88
2024-05-09T22:23:02.508Z,98889.34
2024-05-09T22:25:31.176Z,98896.19
2024-05-09T22:27:58.694Z,98893.53
2024-05-09T22:30:34.035Z,98892.75
2024-05-09T22:33:05.362Z,98890.97
2024-05-09T22:35:32.157Z,98894.47
2024-05-09T22:37:58.854Z,98902.13
2024-05-09T22:40:37.853Z,98902.94
2024-05-09T22:43:12.316Z,98902.03
2024-05-09T22:45:39.180Z,98898.44
2024-05-09T22:48:06.342Z,98901.69
2024-05-09T22:50:33.787Z,98903.41
2024-05-09T22:53:00.688Z,98901.66
2024-05-09T22:55:27.326Z,98911.19
2024-05-09T22:57:53.941Z,98906.84
2024-05-09T23:00:29.195Z,98902.06
2024-05-09T23:03:02.472Z,98904.47
2024-05-09T23:05:29.515Z,98902.00
2024-05-09T23:07:56.318Z,98904.69
2024-05-09T23:10:31.028Z,98896.00
2024-05-09T23:13:02.266Z,98896.09
2024-05-09T23:15:28.961Z,98900.53
2024-05-09T23:17:55.787Z,98899.91
2024-05-09T23:20:33.152Z,98892.06
2024-05-09T23:23:04.707Z,98890.38
2024-05-09T23:25:31.268Z,98894.69
2024-05-09T23:27:57.886Z,98894.75
2024-05-09T23:30:33.608Z,98888.06
2024-05-09T23:33:05.962Z,98889.00
2024-05-09T23:35:32.754Z,98896.94
2024-05-09T23:37:59.447Z,98889.16
2024-05-09T23:40:36.918Z,98896.19
2024-05-09T23:43:07.070Z,98885.22
2024-05-09T23:45:34.019Z,98890.50
2024-05-09T23:48:01.059Z,98893.19
2024-05-09T23:50:34.354Z,98889.97
2024-05-09T23:53:04.264Z,98888.34
2024-05-09T23:55:31.808Z,98891.09
2024-05-09T23:57:58.775Z,98887.84
